Time;durP1;ratioP1;P1;durP2;ratioP2;P2;SDS_P1;SDS_P2;PMS_P1;PMS_P2;Temp;Humidity;BMP_temperature;BMP_pressure;BME280_temperature;BME280_humidity;BME280_pressure;Samples;Min_cycle;Max_cycle;Signal;HPM_P1;HPM_P2
2022/10/07 00:00:26;;;;;;;17.58;2.60;;;11.00;99.90;;;;;;5133033;27;20055;-80
2022/10/07 00:02:51;;;;;;;15.80;2.70;;;11.00;99.90;;;;;;5132833;27;20065;-79
2022/10/07 00:05:17;;;;;;;14.75;2.65;;;11.00;99.90;;;;;;5132560;27;20479;-80
2022/10/07 00:07:43;;;;;;;20.67;3.13;;;10.90;99.90;;;;;;5131548;27;20134;-79
2022/10/07 00:10:09;;;;;;;20.10;3.22;;;10.90;99.90;;;;;;5130923;27;20129;-79
2022/10/07 00:12:35;;;;;;;13.88;3.50;;;10.90;99.90;;;;;;5130846;27;20051;-80
2022/10/07 00:15:01;;;;;;;15.68;3.15;;;10.90;99.90;;;;;;5131514;27;20047;-80
2022/10/07 00:17:27;;;;;;;16.27;3.10;;;10.90;99.90;;;;;;5130908;27;20070;-80
2022/10/07 00:19:52;;;;;;;19.45;2.92;;;10.90;99.90;;;;;;5131090;27;20086;-80
2022/10/07 00:22:19;;;;;;;18.70;2.83;;;10.90;99.90;;;;;;5130835;27;20082;-80
2022/10/07 00:24:44;;;;;;;16.50;3.20;;;10.90;99.90;;;;;;5130710;27;20135;-80
2022/10/07 00:27:10;;;;;;;19.88;3.22;;;10.90;99.90;;;;;;5148228;27;20136;-80
2022/10/07 00:29:36;;;;;;;14.88;2.72;;;10.90;99.90;;;;;;5131250;27;20051;-80
2022/10/07 00:32:02;;;;;;;18.35;3.15;;;10.90;99.90;;;;;;5130670;27;20069;-79
2022/10/07 00:34:28;;;;;;;20.30;3.45;;;10.90;99.90;;;;;;5132637;27;20035;-80
2022/10/07 00:36:54;;;;;;;14.00;2.75;;;10.90;99.90;;;;;;5131309;27;20375;-80
2022/10/07 00:39:20;;;;;;;13.45;2.55;;;10.90;99.90;;;;;;5148924;27;20059;-80
2022/10/07 00:41:49;;;;;;;22.38;3.22;;;10.90;99.90;;;;;;5132940;27;20039;-80
2022/10/07 00:44:34;;;;;;;14.57;2.83;;;11.00;99.90;;;;;;5131276;27;20439;-79
2022/10/07 00:47:20;;;;;;;11.90;3.03;;;11.00;99.90;;;;;;5131342;27;20055;-80
2022/10/07 00:49:54;;;;;;;25.17;5.20;;;11.00;99.90;;;;;;5130364;27;20138;-81
2022/10/07 00:52:24;;;;;;;15.93;3.08;;;10.90;99.90;;;;;;5130937;27;20135;-80
2022/10/07 00:54:53;;;;;;;18.20;2.45;;;10.90;99.90;;;;;;5130413;27;20058;-79
2022/10/07 00:57:22;;;;;;;14.88;2.45;;;11.00;99.90;;;;;;5130782;28;20123;-80
2022/10/07 00:59:48;;;;;;;14.77;2.63;;;11.00;99.90;;;;;;5130369;28;20051;-80
2022/10/07 01:02:14;;;;;;;16.90;3.03;;;10.90;99.90;;;;;;5130824;27;20063;-79
2022/10/07 01:04:42;;;;;;;16.35;3.03;;;10.90;99.90;;;;;;5132115;27;20080;-79
2022/10/07 01:07:08;;;;;;;15.52;2.63;;;10.90;99.90;;;;;;5132057;27;20078;-79
2022/10/07 01:09:34;;;;;;;19.58;3.15;;;10.90;99.90;;;;;;5130351;28;20553;-79
2022/10/07 01:12:38;;;;;;;16.75;2.85;;;10.90;99.90;;;;;;5130954;28;20047;-80
2022/10/07 01:15:28;;;;;;;13.85;2.88;;;10.90;99.90;;;;;;5131926;27;20049;-80
2022/10/07 01:18:00;;;;;;;14.15;2.40;;;10.90;99.90;;;;;;5130389;28;20060;-80
2022/10/07 01:20:36;;;;;;;12.70;2.58;;;10.90;99.90;;;;;;5130145;28;20055;-79
2022/10/07 01:23:13;;;;;;;14.73;3.85;;;11.00;99.90;;;;;;5131715;27;20059;-79
2022/10/07 01:26:06;;;;;;;14.02;2.78;;;11.00;99.90;;;;;;5114229;27;20583;-79
2022/10/07 01:28:38;;;;;;;15.35;3.58;;;10.90;99.90;;;;;;5134542;27;20059;-78
2022/10/07 01:31:09;;;;;;;16.80;3.47;;;11.00;99.90;;;;;;5135994;27;20073;-79
2022/10/07 01:33:38;;;;;;;13.40;2.53;;;11.00;99.90;;;;;;5134453;27;20058;-79
2022/10/07 01:36:14;;;;;;;12.10;2.42;;;11.00;99.90;;;;;;5136674;27;20617;-79
2022/10/07 01:38:48;;;;;;;19.45;4.28;;;11.00;99.90;;;;;;5155984;27;20516;-79
2022/10/07 01:41:17;;;;;;;16.70;2.75;;;11.00;99.90;;;;;;5137344;27;20050;-79
2022/10/07 01:43:45;;;;;;;17.67;2.55;;;11.00;99.90;;;;;;5137414;27;20066;-79
2022/10/07 01:46:20;;;;;;;17.20;3.17;;;11.00;99.90;;;;;;5137438;27;20057;-79
2022/10/07 01:48:46;;;;;;;13.90;2.58;;;11.00;99.90;;;;;;5138010;27;20137;-80
2022/10/07 01:51:17;;;;;;;16.75;2.70;;;11.00;99.90;;;;;;5156583;27;20121;-79
2022/10/07 01:54:14;;;;;;;12.20;2.85;;;11.00;99.90;;;;;;5156164;27;20165;-79
2022/10/07 01:57:03;;;;;;;16.52;4.20;;;11.00;99.90;;;;;;5137551;27;20081;-79
2022/10/07 01:59:34;;;;;;;16.23;3.33;;;10.90;99.90;;;;;;5156661;27;20070;-80
2022/10/07 02:02:27;;;;;;;13.80;3.05;;;10.80;99.90;;;;;;5137990;27;20049;-80
2022/10/07 02:04:58;;;;;;;18.13;3.30;;;10.80;99.90;;;;;;5124920;27;20070;-79
2022/10/07 02:07:50;;;;;;;15.20;2.95;;;10.70;99.90;;;;;;5156625;27;20125;-79
2022/10/07 02:10:48;;;;;;;23.00;3.25;;;10.70;99.90;;;;;;5154654;27;20420;-79
2022/10/07 02:13:27;;;;;;;15.90;3.60;;;10.60;99.90;;;;;;5156163;27;20134;-79
2022/10/07 02:16:04;;;;;;;19.83;3.20;;;10.60;99.90;;;;;;5137245;27;20058;-78
2022/10/07 02:18:32;;;;;;;17.58;4.28;;;10.60;99.90;;;;;;5155178;27;20520;-79
2022/10/07 02:21:02;;;;;;;13.15;2.80;;;10.50;99.90;;;;;;5136784;27;20042;-78
2022/10/07 02:23:33;;;;;;;12.77;3.05;;;10.50;99.90;;;;;;5137345;27;20059;-79
2022/10/07 02:26:02;;;;;;;19.75;3.50;;;10.50;99.90;;;;;;5136774;27;20054;-79
2022/10/07 02:28:29;;;;;;;16.08;3.10;;;10.50;99.90;;;;;;5136734;27;20148;-79
2022/10/07 02:31:00;;;;;;;11.63;3.28;;;10.50;99.90;;;;;;5155346;27;20786;-78
2022/10/07 02:33:28;;;;;;;18.67;3.65;;;10.50;99.90;;;;;;5119491;27;20065;-79
2022/10/07 02:36:05;;;;;;;17.08;4.68;;;10.50;99.90;;;;;;5136365;27;20050;-79
2022/10/07 02:38:31;;;;;;;15.38;3.42;;;10.50;99.90;;;;;;5154072;27;20074;-80
2022/10/07 02:41:11;;;;;;;26.08;3.58;;;10.50;99.90;;;;;;5136375;27;20058;-79
2022/10/07 02:43:47;;;;;;;18.52;3.22;;;10.50;99.90;;;;;;5136342;27;20405;-79
2022/10/07 02:46:28;;;;;;;18.52;3.53;;;10.50;99.90;;;;;;5155166;27;20054;-79
2022/10/07 02:49:01;;;;;;;17.38;3.58;;;10.50;99.90;;;;;;5136348;27;20046;-79
2022/10/07 02:51:35;;;;;;;18.85;3.75;;;10.50;99.90;;;;;;5136375;27;20054;-80
2022/10/07 02:54:03;;;;;;;18.50;3.53;;;10.50;99.90;;;;;;5136460;27;20405;-79
2022/10/07 02:56:32;;;;;;;15.00;3.55;;;10.50;99.90;;;;;;5154715;27;20050;-79
2022/10/07 02:59:00;;;;;;;23.83;5.03;;;10.40;99.90;;;;;;5154839;27;20113;-79
2022/10/07 03:01:33;;;;;;;20.20;3.75;;;10.40;99.90;;;;;;5154629;27;20055;-80
2022/10/07 03:04:00;;;;;;;19.85;4.85;;;10.40;99.90;;;;;;5118721;27;20054;-79
2022/10/07 03:06:28;;;;;;;15.35;3.33;;;10.40;99.90;;;;;;5154809;27;20095;-79
2022/10/07 03:08:56;;;;;;;18.08;4.00;;;10.40;99.90;;;;;;5153158;27;20129;-79
2022/10/07 03:11:23;;;;;;;17.20;4.45;;;10.50;99.90;;;;;;5136039;27;20099;-79
2022/10/07 03:13:49;;;;;;;24.33;5.15;;;10.50;99.90;;;;;;5154942;27;20479;-79
2022/10/07 03:16:15;;;;;;;27.67;5.28;;;10.50;99.90;;;;;;5153359;27;20066;-79
2022/10/07 03:18:41;;;;;;;18.88;4.25;;;10.50;99.90;;;;;;5135262;27;20157;-79
2022/10/07 03:21:07;;;;;;;17.90;4.47;;;10.50;99.90;;;;;;5135676;27;20126;-79
2022/10/07 03:23:33;;;;;;;17.42;4.43;;;10.50;99.90;;;;;;5135535;27;20057;-80
2022/10/07 03:25:59;;;;;;;21.38;4.90;;;10.60;99.90;;;;;;5154236;27;20050;-80
2022/10/07 03:28:27;;;;;;;19.48;4.38;;;10.50;99.90;;;;;;5135991;27;20118;-80
2022/10/07 03:31:02;;;;;;;19.23;4.10;;;10.50;99.90;;;;;;5135206;27;20119;-79
2022/10/07 03:33:28;;;;;;;16.48;4.40;;;10.50;99.90;;;;;;5154067;27;20050;-80
2022/10/07 03:35:53;;;;;;;21.48;4.47;;;10.50;99.90;;;;;;5152652;27;20050;-79
2022/10/07 03:38:20;;;;;;;22.80;5.13;;;10.60;99.90;;;;;;5153816;27;20510;-80
2022/10/07 03:40:46;;;;;;;28.05;6.22;;;10.60;99.90;;;;;;5134844;27;20053;-80
2022/10/07 03:43:12;;;;;;;18.08;4.05;;;10.60;99.90;;;;;;5135094;27;20058;-80
2022/10/07 03:45:43;;;;;;;19.20;5.18;;;10.50;99.90;;;;;;5134885;27;20046;-80
2022/10/07 03:48:09;;;;;;;20.05;4.75;;;10.50;99.90;;;;;;5134770;27;20485;-80
2022/10/07 03:50:36;;;;;;;21.92;6.95;;;10.50;99.90;;;;;;5135268;27;20047;-81
2022/10/07 03:53:03;;;;;;;22.55;5.00;;;10.50;99.90;;;;;;5153794;27;20050;-80
2022/10/07 03:55:29;;;;;;;20.00;4.40;;;10.50;99.90;;;;;;5153694;27;20071;-81
2022/10/07 03:57:56;;;;;;;19.27;4.72;;;10.50;99.90;;;;;;5153523;27;20055;-80
2022/10/07 04:00:24;;;;;;;17.98;4.93;;;10.50;99.90;;;;;;5135011;27;20051;-81
2022/10/07 04:02:51;;;;;;;18.38;4.75;;;10.50;99.90;;;;;;5134665;27;20112;-80
2022/10/07 04:05:19;;;;;;;28.58;5.18;;;10.40;99.90;;;;;;5153289;27;20062;-80
2022/10/07 04:07:46;;;;;;;28.98;5.43;;;10.40;99.90;;;;;;5134651;27;20051;-81
2022/10/07 04:10:15;;;;;;;22.80;5.25;;;10.40;99.90;;;;;;5135389;27;20062;-80
2022/10/07 04:12:47;;;;;;;28.52;5.05;;;10.40;99.90;;;;;;5135318;27;20501;-80
2022/10/07 04:15:13;;;;;;;20.67;5.45;;;10.50;99.90;;;;;;5135168;27;20081;-80
2022/10/07 04:17:40;;;;;;;20.55;6.03;;;10.40;99.90;;;;;;5153383;27;20084;-80
2022/10/07 04:20:07;;;;;;;17.98;5.22;;;10.40;99.90;;;;;;5117466;27;20497;-80
2022/10/07 04:22:33;;;;;;;19.63;5.47;;;10.40;99.90;;;;;;5134390;27;20099;-80
2022/10/07 04:27:43;;;;;;;29.63;6.13;;;10.40;99.90;;;;;;5153137;27;20516;-80
2022/10/07 04:30:10;;;;;;;25.63;6.35;;;10.40;99.90;;;;;;5134341;27;20125;-80
2022/10/07 04:32:36;;;;;;;18.17;5.22;;;10.30;99.90;;;;;;5134166;27;20090;-79
2022/10/07 04:35:04;;;;;;;21.40;5.68;;;10.30;99.90;;;;;;5152542;27;20046;-80
2022/10/07 04:37:29;;;;;;;24.17;5.57;;;10.30;99.90;;;;;;5133793;27;20524;-80
2022/10/07 04:39:55;;;;;;;20.38;5.82;;;10.40;99.90;;;;;;5133977;27;20046;-80
2022/10/07 04:45:07;;;;;;;21.95;5.78;;;10.40;99.90;;;;;;5134176;27;20057;-80
2022/10/07 04:47:34;;;;;;;18.90;5.35;;;10.40;99.90;;;;;;5152544;27;20051;-80
2022/10/07 04:50:01;;;;;;;23.17;5.82;;;10.40;99.90;;;;;;5153315;27;20042;-80
2022/10/07 04:52:27;;;;;;;23.70;5.82;;;10.40;99.90;;;;;;5152456;27;20076;-81
2022/10/07 04:54:53;;;;;;;29.77;6.13;;;10.30;99.90;;;;;;5152582;27;20038;-80
2022/10/07 04:57:19;;;;;;;21.58;5.75;;;10.30;99.90;;;;;;5152851;27;20046;-80
2022/10/07 04:59:45;;;;;;;22.55;5.68;;;10.30;99.90;;;;;;5152233;27;20126;-79
2022/10/07 05:02:10;;;;;;;31.95;6.43;;;10.30;99.90;;;;;;5133830;27;20058;-80
2022/10/07 05:04:36;;;;;;;16.50;5.38;;;10.30;99.90;;;;;;5133907;27;20418;-80
2022/10/07 05:07:03;;;;;;;17.08;5.50;;;10.20;99.90;;;;;;5152837;27;20090;-80
2022/10/07 05:09:29;;;;;;;22.48;5.60;;;10.20;99.90;;;;;;5134225;27;20057;-80
2022/10/07 05:11:55;;;;;;;17.48;5.78;;;10.20;99.90;;;;;;5133446;27;20043;-81
2022/10/07 05:14:21;;;;;;;26.83;5.75;;;10.20;99.90;;;;;;5152763;27;20093;-81
2022/10/07 05:16:48;;;;;;;22.95;5.75;;;10.10;99.90;;;;;;5134875;27;20421;-80
2022/10/07 05:19:14;;;;;;;22.77;7.18;;;10.20;99.90;;;;;;5133945;27;20047;-80
2022/10/07 05:21:41;;;;;;;26.50;6.57;;;10.10;99.90;;;;;;5133992;27;20052;-81
2022/10/07 05:24:07;;;;;;;21.90;6.13;;;10.10;99.90;;;;;;5152677;27;20103;-80
2022/10/07 05:26:33;;;;;;;20.23;6.85;;;10.10;99.90;;;;;;5133979;27;20057;-80
2022/10/07 05:28:59;;;;;;;25.13;6.35;;;10.10;99.90;;;;;;5134680;27;20043;-80
2022/10/07 05:31:26;;;;;;;22.33;6.85;;;10.10;99.90;;;;;;5153303;27;20645;-80
2022/10/07 05:33:52;;;;;;;25.25;6.05;;;10.10;99.90;;;;;;5116601;27;20498;-79
2022/10/07 05:36:19;;;;;;;32.03;7.40;;;10.20;99.90;;;;;;5152164;27;20133;-80
2022/10/07 05:38:45;;;;;;;25.85;7.82;;;10.20;99.90;;;;;;5152324;27;20099;-80
2022/10/07 05:41:11;;;;;;;22.33;6.05;;;10.20;99.90;;;;;;5116606;27;20050;-80
2022/10/07 05:43:41;;;;;;;20.55;6.65;;;10.20;99.90;;;;;;5152427;27;20051;-80
2022/10/07 05:46:11;;;;;;;19.13;5.82;;;10.20;99.90;;;;;;5134225;27;20053;-81
2022/10/07 05:48:37;;;;;;;26.35;5.97;;;10.20;99.90;;;;;;5116573;27;20493;-80
2022/10/07 05:51:03;;;;;;;27.15;7.38;;;10.20;99.90;;;;;;5133643;27;20054;-80
2022/10/07 05:53:30;;;;;;;33.78;7.55;;;10.20;99.90;;;;;;5152128;27;20095;-80
2022/10/07 05:55:57;;;;;;;24.95;7.00;;;10.20;99.90;;;;;;5151907;27;20490;-81
2022/10/07 05:58:22;;;;;;;22.17;6.57;;;10.30;99.90;;;;;;5133433;27;20107;-80
2022/10/07 06:00:53;;;;;;;31.27;6.38;;;10.30;99.90;;;;;;5151957;27;20050;-80
2022/10/07 06:03:20;;;;;;;26.95;7.68;;;10.30;99.90;;;;;;5152650;27;20374;-80
2022/10/07 06:05:47;;;;;;;21.88;6.78;;;10.30;99.90;;;;;;5133376;27;20047;-81
2022/10/07 06:08:13;;;;;;;28.85;6.53;;;10.40;99.90;;;;;;5133431;27;20129;-81
2022/10/07 06:13:23;;;;;;;26.25;7.00;;;10.50;99.90;;;;;;5154874;27;20775;-81
2022/10/07 06:15:49;;;;;;;23.38;6.55;;;10.50;99.90;;;;;;5136433;27;20496;-80
2022/10/07 06:18:15;;;;;;;27.45;6.20;;;10.50;99.90;;;;;;5136810;27;20482;-80
2022/10/07 06:20:41;;;;;;;19.42;5.70;;;10.60;99.90;;;;;;5155178;27;20109;-81
2022/10/07 06:23:07;;;;;;;32.63;7.28;;;10.70;99.90;;;;;;5155401;27;20046;-80
2022/10/07 06:25:33;;;;;;;18.95;6.15;;;10.70;99.90;;;;;;5155269;27;20070;-80
2022/10/07 06:28:00;;;;;;;23.38;6.57;;;10.70;99.90;;;;;;5155048;27;20058;-81
2022/10/07 06:30:26;;;;;;;22.27;6.45;;;10.80;99.90;;;;;;5119563;27;20111;-80
2022/10/07 06:32:52;;;;;;;29.67;6.72;;;10.80;99.90;;;;;;5136469;27;20065;-80
2022/10/07 06:35:18;;;;;;;39.40;9.68;;;10.80;99.90;;;;;;5136362;27;20046;-80
2022/10/07 06:37:44;;;;;;;25.73;5.38;;;10.90;99.90;;;;;;5149774;27;20047;-80
2022/10/07 06:40:10;;;;;;;24.73;6.07;;;10.90;99.90;;;;;;5134593;27;20054;-80
2022/10/07 06:42:36;;;;;;;23.33;6.25;;;11.00;99.90;;;;;;5133039;27;20051;-80
2022/10/07 06:45:02;;;;;;;19.27;5.72;;;11.10;99.90;;;;;;5134099;27;20059;-80
2022/10/07 06:47:29;;;;;;;18.88;5.68;;;11.20;99.90;;;;;;5116707;27;20054;-79
2022/10/07 06:49:55;;;;;;;22.67;6.05;;;11.20;99.90;;;;;;5134292;27;20134;-80
2022/10/07 06:52:20;;;;;;;25.50;6.70;;;11.30;99.90;;;;;;5134410;27;20433;-80
2022/10/07 06:54:46;;;;;;;25.52;6.47;;;11.30;99.90;;;;;;5134437;27;20055;-80
2022/10/07 06:57:12;;;;;;;27.05;7.03;;;11.40;99.90;;;;;;5134301;27;20055;-80
2022/10/07 06:59:38;;;;;;;22.42;5.63;;;11.50;99.90;;;;;;5133904;27;20160;-80
2022/10/07 07:02:05;;;;;;;15.25;5.78;;;11.50;99.90;;;;;;5115579;27;20043;-80
2022/10/07 07:04:31;;;;;;;23.45;7.15;;;11.60;99.90;;;;;;5133686;27;20510;-80
2022/10/07 07:06:57;;;;;;;24.35;6.70;;;11.60;99.90;;;;;;5132511;27;20102;-80
2022/10/07 07:09:23;;;;;;;18.95;5.72;;;11.60;99.90;;;;;;5134407;27;20047;-80
2022/10/07 07:11:49;;;;;;;19.45;6.60;;;11.70;99.90;;;;;;5134049;27;20044;-80
2022/10/07 07:14:15;;;;;;;36.20;7.32;;;11.70;99.90;;;;;;5134065;27;20047;-80
2022/10/07 07:16:41;;;;;;;24.50;6.70;;;11.80;99.90;;;;;;5132796;27;20127;-79
2022/10/07 07:19:09;;;;;;;31.33;8.15;;;11.80;99.90;;;;;;5132362;27;20051;-80
2022/10/07 07:21:37;;;;;;;21.73;6.18;;;11.90;99.90;;;;;;5132167;27;20775;-80
2022/10/07 07:24:03;;;;;;;23.65;6.20;;;11.90;99.90;;;;;;5131765;27;20589;-80
2022/10/07 07:26:29;;;;;;;26.50;7.40;;;12.00;99.90;;;;;;5133672;27;20112;-80
2022/10/07 07:29:01;;;;;;;21.98;6.13;;;12.00;99.90;;;;;;5133476;27;20186;-80
2022/10/07 07:31:29;;;;;;;18.85;6.65;;;12.10;99.90;;;;;;5115263;27;20410;-79
2022/10/07 07:33:58;;;;;;;24.17;6.13;;;12.20;99.90;;;;;;5133114;27;20127;-80
2022/10/07 07:36:24;;;;;;;20.40;5.63;;;12.20;99.90;;;;;;5131417;27;20047;-80
2022/10/07 07:38:58;;;;;;;21.15;5.93;;;12.20;99.90;;;;;;5131601;27;20055;-80
2022/10/07 07:41:30;;;;;;;21.93;5.93;;;12.30;99.90;;;;;;5133173;27;20042;-81
2022/10/07 07:43:59;;;;;;;24.02;6.50;;;12.30;99.90;;;;;;5131706;27;20070;-80
2022/10/07 07:46:30;;;;;;;26.67;7.20;;;12.40;99.90;;;;;;5131583;27;20055;-80
2022/10/07 07:48:57;;;;;;;21.65;6.18;;;12.50;99.90;;;;;;5132034;27;20387;-80
2022/10/07 07:51:23;;;;;;;21.33;6.05;;;12.50;99.90;;;;;;5132728;27;20057;-80
2022/10/07 07:53:49;;;;;;;23.30;5.78;;;12.60;99.90;;;;;;5131688;27;20047;-81
2022/10/07 07:56:16;;;;;;;20.27;6.15;;;12.60;99.90;;;;;;5132830;27;20051;-80
2022/10/07 07:58:42;;;;;;;21.10;6.18;;;12.70;99.90;;;;;;5131214;27;20059;-81
2022/10/07 08:01:13;;;;;;;20.27;5.95;;;12.70;99.90;;;;;;5114499;27;20039;-80
2022/10/07 08:03:42;;;;;;;19.98;5.20;;;12.80;99.90;;;;;;5131735;27;20089;-80
2022/10/07 08:06:10;;;;;;;20.80;5.25;;;12.90;99.90;;;;;;5133170;27;20397;-80
2022/10/07 08:08:36;;;;;;;21.10;5.30;;;12.90;99.90;;;;;;5132727;27;20054;-80
2022/10/07 08:11:10;;;;;;;22.63;7.03;;;13.00;99.90;;;;;;5131468;27;20192;-80
2022/10/07 08:13:38;;;;;;;20.25;5.43;;;13.00;99.90;;;;;;5131475;27;20055;-80
2022/10/07 08:16:04;;;;;;;18.60;5.50;;;13.10;99.90;;;;;;5114231;27;20139;-80
2022/10/07 08:18:30;;;;;;;23.13;6.70;;;13.10;99.90;;;;;;5131195;27;20087;-80
2022/10/07 08:20:58;;;;;;;27.00;6.68;;;13.10;99.90;;;;;;5114337;27;20048;-80
2022/10/07 08:23:29;;;;;;;20.55;5.30;;;13.10;99.90;;;;;;5113833;27;20079;-80
2022/10/07 08:25:58;;;;;;;21.52;5.50;;;13.20;99.90;;;;;;5132287;27;20058;-80
2022/10/07 08:28:26;;;;;;;21.75;5.38;;;13.20;99.90;;;;;;5132267;27;20108;-80
2022/10/07 08:30:53;;;;;;;18.85;5.50;;;13.30;99.90;;;;;;5131756;27;20108;-80
2022/10/07 08:33:20;;;;;;;22.45;5.53;;;13.30;99.90;;;;;;5114277;27;20043;-80
2022/10/07 08:35:59;;;;;;;23.80;7.22;;;13.40;99.90;;;;;;5134023;27;20065;-79
2022/10/07 08:38:28;;;;;;;26.88;5.78;;;13.50;99.90;;;;;;5134535;27;20482;-80
2022/10/07 08:40:54;;;;;;;16.98;5.32;;;13.60;99.90;;;;;;5152934;27;20097;-79
2022/10/07 08:43:23;;;;;;;18.13;4.53;;;13.60;99.90;;;;;;5133886;27;20510;-80
2022/10/07 08:45:51;;;;;;;18.15;5.28;;;13.60;99.90;;;;;;5153214;27;20450;-82
2022/10/07 08:48:23;;;;;;;16.90;4.80;;;13.70;99.90;;;;;;5134652;27;20122;-80
2022/10/07 08:50:54;;;;;;;17.75;5.07;;;13.70;99.90;;;;;;5152544;27;20078;-80
2022/10/07 08:53:33;;;;;;;20.27;5.03;;;13.80;99.90;;;;;;5152448;27;20103;-79
2022/10/07 08:56:14;;;;;;;18.05;5.30;;;13.90;99.90;;;;;;5153140;27;20050;-79
2022/10/07 08:59:01;;;;;;;22.23;4.88;;;13.90;99.90;;;;;;5134052;27;20106;-78
2022/10/07 09:01:52;;;;;;;20.15;5.22;;;14.00;99.90;;;;;;5152451;27;20058;-79
2022/10/07 09:04:43;;;;;;;16.02;4.90;;;14.10;99.90;;;;;;5152263;27;20490;-80
2022/10/07 09:07:14;;;;;;;22.77;5.47;;;14.10;99.90;;;;;;5133772;27;20055;-79
2022/10/07 09:09:43;;;;;;;17.60;4.20;;;14.20;99.90;;;;;;5152680;27;20058;-79
2022/10/07 09:12:19;;;;;;;19.00;5.40;;;14.30;99.90;;;;;;5133670;27;20057;-80
2022/10/07 09:14:49;;;;;;;19.80;4.28;;;14.40;99.90;;;;;;5133817;27;20059;-79
2022/10/07 09:17:42;;;;;;;18.50;4.32;;;14.50;99.90;;;;;;5152137;27;20504;-80
2022/10/07 09:20:16;;;;;;;21.55;4.68;;;14.70;99.90;;;;;;5152171;27;20493;-80
2022/10/07 09:22:53;;;;;;;22.45;4.72;;;14.80;99.90;;;;;;5152369;27;20042;-79
2022/10/07 09:25:22;;;;;;;16.27;4.68;;;14.80;99.90;;;;;;5152582;27;20451;-80
2022/10/07 09:27:50;;;;;;;19.00;5.43;;;14.90;99.90;;;;;;5152507;27;20081;-80
2022/10/07 09:30:16;;;;;;;18.10;4.68;;;14.80;99.90;;;;;;5133807;27;20419;-80
2022/10/07 09:32:45;;;;;;;23.45;5.32;;;14.80;99.90;;;;;;5152299;27;20043;-80
2022/10/07 09:35:18;;;;;;;24.52;5.05;;;15.00;99.90;;;;;;5116371;27;20058;-79
2022/10/07 09:37:58;;;;;;;15.15;3.47;;;15.10;99.90;;;;;;5151674;27;20070;-79
2022/10/07 09:40:34;;;;;;;20.55;4.43;;;15.10;99.90;;;;;;5133352;27;20046;-80
2022/10/07 09:43:08;;;;;;;16.70;4.55;;;15.30;99.90;;;;;;5152087;27;20478;-80
2022/10/07 09:45:35;;;;;;;19.85;5.22;;;15.40;99.90;;;;;;5133485;27;20188;-80
2022/10/07 09:48:06;;;;;;;20.17;4.47;;;15.50;99.90;;;;;;5136393;27;20081;-79
2022/10/07 09:50:41;;;;;;;18.35;3.38;;;15.70;99.90;;;;;;5137451;27;20126;-80
2022/10/07 09:53:21;;;;;;;18.33;4.60;;;15.80;99.90;;;;;;5156237;27;20454;-79
2022/10/07 09:55:49;;;;;;;18.75;4.93;;;15.90;99.90;;;;;;5155075;27;20503;-79
2022/10/07 09:58:27;;;;;;;17.25;4.40;;;16.00;99.90;;;;;;5120603;27;20050;-80
2022/10/07 10:01:01;;;;;;;14.80;3.92;;;16.10;99.90;;;;;;5156012;27;20046;-80
2022/10/07 10:03:35;;;;;;;17.70;3.90;;;16.20;99.90;;;;;;5155661;27;20047;-79
2022/10/07 10:06:07;;;;;;;17.88;4.22;;;16.30;99.90;;;;;;5155799;27;20043;-79
2022/10/07 10:08:42;;;;;;;16.05;4.03;;;16.30;99.90;;;;;;5155859;27;20059;-79
2022/10/07 10:11:16;;;;;;;16.88;4.78;;;16.30;99.90;;;;;;5137341;27;20051;-79
2022/10/07 10:13:42;;;;;;;19.40;4.88;;;16.40;99.90;;;;;;5137091;27;20054;-79
2022/10/07 10:16:36;;;;;;;17.95;3.65;;;16.50;99.90;;;;;;5137506;27;20049;-79
2022/10/07 10:19:25;;;;;;;19.23;4.05;;;16.60;99.90;;;;;;5152131;27;20046;-79
2022/10/07 10:21:55;;;;;;;18.20;3.28;;;16.60;99.90;;;;;;5137503;27;20050;-80
2022/10/07 10:27:19;;;;;;;22.50;3.80;;;16.60;99.90;;;;;;5137435;27;20054;-79
2022/10/07 10:30:06;;;;;;;11.02;3.97;;;16.60;99.90;;;;;;5155331;27;20060;-79
2022/10/07 10:32:50;;;;;;;15.02;4.00;;;16.70;99.90;;;;;;5155426;27;20057;-80
2022/10/07 10:35:24;;;;;;;16.48;3.60;;;16.80;99.90;;;;;;5119689;27;20367;-80
2022/10/07 10:37:59;;;;;;;17.23;4.43;;;17.00;99.90;;;;;;5135993;27;20834;-79
2022/10/07 10:40:44;;;;;;;12.65;2.97;;;17.00;99.90;;;;;;5136419;27;20050;-80
2022/10/07 10:43:16;;;;;;;12.75;3.60;;;17.20;99.90;;;;;;5136467;27;20413;-80
2022/10/07 10:46:00;;;;;;;20.63;4.10;;;17.20;99.90;;;;;;5155056;27;20102;-80
2022/10/07 10:48:48;;;;;;;12.75;2.88;;;17.20;99.90;;;;;;5136517;27;20413;-79
2022/10/07 10:51:37;;;;;;;17.15;3.40;;;17.40;99.90;;;;;;5136236;27;20058;-80
2022/10/07 10:54:06;;;;;;;17.77;4.13;;;17.40;99.90;;;;;;5088735;27;20128;-80
2022/10/07 10:56:44;;;;;;;15.48;3.30;;;17.50;99.90;;;;;;5136314;27;20051;-79
2022/10/07 10:59:37;;;;;;;10.98;2.65;;;17.50;99.90;;;;;;5135121;27;20550;-80
2022/10/07 11:02:24;;;;;;;15.52;3.50;;;17.60;99.90;;;;;;5136562;27;20378;-79
2022/10/07 11:04:59;;;;;;;19.83;4.15;;;17.80;99.90;;;;;;5153714;27;20554;-79
2022/10/07 11:07:54;;;;;;;14.07;3.30;;;18.20;99.90;;;;;;5136574;27;20458;-79
2022/10/07 11:10:35;;;;;;;19.10;3.78;;;18.30;99.90;;;;;;5106221;27;20222;-79
2022/10/07 11:13:26;;;;;;;18.80;4.60;;;18.30;99.90;;;;;;5135610;27;20508;-79
2022/10/07 11:16:04;;;;;;;17.83;3.63;;;18.40;99.90;;;;;;5124065;27;20439;-79
2022/10/07 11:18:50;;;;;;;15.65;3.42;;;18.20;99.90;;;;;;5135710;27;20051;-80
2022/10/07 11:21:32;;;;;;;14.55;3.22;;;17.90;99.90;;;;;;5135411;27;20456;-80
2022/10/07 11:24:29;;;;;;;18.58;3.55;;;18.00;99.90;;;;;;5135348;27;20336;-80
2022/10/07 11:27:13;;;;;;;13.55;2.97;;;18.40;99.90;;;;;;5135539;27;20143;-80
2022/10/07 11:30:10;;;;;;;14.63;2.63;;;18.40;99.90;;;;;;5135423;27;20051;-80
2022/10/07 11:33:03;;;;;;;19.98;2.95;;;18.80;99.90;;;;;;5153477;27;20098;-79
2022/10/07 11:35:46;;;;;;;13.32;3.85;;;19.30;99.90;;;;;;5135764;27;20435;-80
2022/10/07 11:38:11;;;;;;;11.65;2.72;;;19.40;99.90;;;;;;5154101;27;20046;-79
2022/10/07 11:41:02;;;;;;;17.08;3.60;;;19.50;99.90;;;;;;5135406;27;20744;-80
2022/10/07 11:43:45;;;;;;;11.82;2.60;;;19.90;99.90;;;;;;5134821;27;20062;-80
2022/10/07 11:46:34;;;;;;;13.80;3.50;;;20.00;99.90;;;;;;5153904;27;20046;-79
2022/10/07 11:49:22;;;;;;;13.30;2.78;;;20.20;99.90;;;;;;5153970;27;20306;-79
2022/10/07 11:52:00;;;;;;;19.42;3.42;;;20.30;99.90;;;;;;5153561;27;20809;-81
2022/10/07 11:54:39;;;;;;;19.27;3.95;;;20.80;99.90;;;;;;5134860;27;20383;-81
2022/10/07 11:57:05;;;;;;;14.40;3.58;;;20.50;99.90;;;;;;5153269;27;20565;-80
2022/10/07 11:59:46;;;;;;;17.10;3.42;;;20.80;99.90;;;;;;5152170;27;20599;-79
2022/10/07 12:02:28;;;;;;;14.63;3.67;;;20.40;99.90;;;;;;5134170;27;20536;-80
2022/10/07 12:04:58;;;;;;;9.68;2.38;;;20.80;99.90;;;;;;5153463;27;20111;-81
2022/10/07 12:07:43;;;;;;;8.73;2.85;;;21.30;99.40;;;;;;5134719;27;20055;-79
2022/10/07 12:10:21;;;;;;;16.63;3.67;;;21.00;99.30;;;;;;5134713;27;20493;-82
2022/10/07 12:12:56;;;;;;;13.40;3.28;;;21.20;99.90;;;;;;5153179;27;20544;-80
2022/10/07 12:15:49;;;;;;;14.57;2.72;;;20.80;99.90;;;;;;5134718;27;20057;-80
2022/10/07 12:18:17;;;;;;;15.32;3.10;;;20.10;99.90;;;;;;5148533;27;20043;-80
2022/10/07 12:20:44;;;;;;;17.25;3.08;;;19.60;99.90;;;;;;5153220;27;20397;-79
2022/10/07 12:23:22;;;;;;;16.85;3.78;;;20.10;99.90;;;;;;5134332;27;20142;-79
2022/10/07 12:25:55;;;;;;;12.55;3.58;;;20.20;99.90;;;;;;5153278;27;20046;-79
2022/10/07 12:28:40;;;;;;;17.42;2.97;;;20.00;99.90;;;;;;5134971;27;20046;-80
2022/10/07 12:31:32;;;;;;;20.35;2.78;;;20.50;99.80;;;;;;5134406;27;20054;-80
2022/10/07 12:34:04;;;;;;;13.95;3.58;;;20.70;99.10;;;;;;5153036;27;20042;-80
2022/10/07 12:36:30;;;;;;;14.15;3.00;;;21.30;98.10;;;;;;5130364;27;20158;-80
2022/10/07 12:38:58;;;;;;;17.65;3.00;;;21.50;98.30;;;;;;5131980;27;20091;-80
2022/10/07 12:41:26;;;;;;;13.00;2.70;;;21.30;98.20;;;;;;5132234;27;20057;-80
2022/10/07 12:44:12;;;;;;;14.23;2.60;;;21.20;98.60;;;;;;5132370;27;20055;-80
2022/10/07 12:46:51;;;;;;;12.35;2.65;;;20.80;98.80;;;;;;5132583;27;20040;-80
2022/10/07 12:49:30;;;;;;;16.77;3.33;;;20.70;99.10;;;;;;5148545;27;20477;-81
2022/10/07 12:52:02;;;;;;;17.73;3.65;;;20.90;98.80;;;;;;5130751;27;20047;-79
2022/10/07 12:54:46;;;;;;;12.38;2.55;;;21.00;98.30;;;;;;5130830;27;20050;-80
2022/10/07 12:57:19;;;;;;;14.95;2.72;;;20.80;98.20;;;;;;5130619;27;20185;-79
2022/10/07 13:00:19;;;;;;;11.95;2.63;;;20.70;98.50;;;;;;5130510;27;20055;-80
2022/10/07 13:03:30;;;;;;;10.63;2.83;;;21.30;98.30;;;;;;5131319;28;20108;-79
2022/10/07 13:06:14;;;;;;;17.30;3.22;;;22.00;97.50;;;;;;5091852;28;20090;-80
2022/10/07 13:09:05;;;;;;;9.88;2.10;;;21.70;96.70;;;;;;5131676;28;20565;-80
2022/10/07 13:12:05;;;;;;;10.43;2.30;;;21.70;96.90;;;;;;5131987;27;20086;-81
2022/10/07 13:14:43;;;;;;;12.35;3.03;;;21.80;96.90;;;;;;5130211;28;20138;-79